Valle Crucis, North Carolina
Current Conditions -  °F | °C
As of 9:55 PM on Monday 20 Oct 2014 (Local Time) from KTNB Reporting Station
Scattered Clouds Scattered Clouds  
Wind Chill: 50°   Ceiling: Unl
Heat Index: 50°   Visibility: 10mi
Dew Point: 46°   Wind: 3mph
Humidity: 85%   Direction: 270°W
Pressure: 30.04"   Gusts: NA
Location:  36.21°N, 81.78°W
Report Text: KTNB 210155Z AUTO 27003KT 10SM SCT080 10/08 A3004 RMK AO2 T01020078
Loading
Personal Weather Stations






























Interactive Weather Map
Tropical Storm Tracking
New forecast layout! Learn more

10-Day Weather Forecast

Advertisements
Track Severe Weather on mobile